sensor_id;sensor_type;location;lat;lon;timestamp;temperature;humidity
1351;DHT22;669;50.206;9.998;2023-02-19T00:01:48;8.70;93.90
1351;DHT22;669;50.206;9.998;2023-02-19T00:04:20;8.70;94.00
1351;DHT22;669;50.206;9.998;2023-02-19T00:06:50;8.70;93.70
1351;DHT22;669;50.206;9.998;2023-02-19T00:09:19;8.70;93.80
1351;DHT22;669;50.206;9.998;2023-02-19T00:11:47;8.70;93.90
1351;DHT22;669;50.206;9.998;2023-02-19T00:14:18;8.70;93.70
1351;DHT22;669;50.206;9.998;2023-02-19T00:16:46;8.70;93.60
1351;DHT22;669;50.206;9.998;2023-02-19T00:19:16;8.70;93.50
1351;DHT22;669;50.206;9.998;2023-02-19T00:21:44;8.70;93.50
1351;DHT22;669;50.206;9.998;2023-02-19T00:24:14;8.70;93.70
1351;DHT22;669;50.206;9.998;2023-02-19T00:26:43;8.70;93.30
1351;DHT22;669;50.206;9.998;2023-02-19T00:29:13;8.70;93.50
1351;DHT22;669;50.206;9.998;2023-02-19T00:31:41;8.70;93.40
1351;DHT22;669;50.206;9.998;2023-02-19T00:34:10;8.70;93.30
1351;DHT22;669;50.206;9.998;2023-02-19T00:36:40;8.70;93.20
1351;DHT22;669;50.206;9.998;2023-02-19T00:39:11;8.80;93.20
1351;DHT22;669;50.206;9.998;2023-02-19T00:41:42;8.80;93.20
1351;DHT22;669;50.206;9.998;2023-02-19T00:44:11;8.80;93.20
1351;DHT22;669;50.206;9.998;2023-02-19T00:46:41;8.80;93.20
1351;DHT22;669;50.206;9.998;2023-02-19T00:49:14;8.80;93.20
1351;DHT22;669;50.206;9.998;2023-02-19T00:51:43;8.80;93.10
1351;DHT22;669;50.206;9.998;2023-02-19T00:54:11;8.80;93.20
1351;DHT22;669;50.206;9.998;2023-02-19T00:56:39;8.80;93.20
1351;DHT22;669;50.206;9.998;2023-02-19T00:59:09;8.70;93.20
1351;DHT22;669;50.206;9.998;2023-02-19T01:01:37;8.70;93.20
1351;DHT22;669;50.206;9.998;2023-02-19T01:04:05;8.70;93.20
1351;DHT22;669;50.206;9.998;2023-02-19T01:06:33;8.70;93.20
1351;DHT22;669;50.206;9.998;2023-02-19T01:09:02;8.80;93.20
1351;DHT22;669;50.206;9.998;2023-02-19T01:11:30;8.80;93.20
1351;DHT22;669;50.206;9.998;2023-02-19T01:13:58;8.80;93.20
1351;DHT22;669;50.206;9.998;2023-02-19T01:16:29;8.70;93.20
1351;DHT22;669;50.206;9.998;2023-02-19T01:18:57;8.80;93.20
1351;DHT22;669;50.206;9.998;2023-02-19T01:21:26;8.80;93.20
1351;DHT22;669;50.206;9.998;2023-02-19T01:23:55;8.80;93.20
1351;DHT22;669;50.206;9.998;2023-02-19T01:26:25;8.80;93.10
1351;DHT22;669;50.206;9.998;2023-02-19T01:28:53;8.80;93.10
1351;DHT22;669;50.206;9.998;2023-02-19T01:31:22;8.80;93.20
1351;DHT22;669;50.206;9.998;2023-02-19T01:33:54;8.80;93.20
1351;DHT22;669;50.206;9.998;2023-02-19T01:36:23;8.80;93.20
1351;DHT22;669;50.206;9.998;2023-02-19T01:38:51;8.80;93.50
1351;DHT22;669;50.206;9.998;2023-02-19T01:41:21;8.70;93.70
1351;DHT22;669;50.206;9.998;2023-02-19T01:43:59;8.70;94.40
1351;DHT22;669;50.206;9.998;2023-02-19T01:46:28;8.60;95.00
1351;DHT22;669;50.206;9.998;2023-02-19T01:49:00;8.60;95.50
1351;DHT22;669;50.206;9.998;2023-02-19T01:51:29;8.50;95.80
1351;DHT22;669;50.206;9.998;2023-02-19T01:54:02;8.50;96.20
1351;DHT22;669;50.206;9.998;2023-02-19T01:56:32;8.40;96.40
1351;DHT22;669;50.206;9.998;2023-02-19T01:59:01;8.30;96.60
1351;DHT22;669;50.206;9.998;2023-02-19T02:01:29;8.30;96.90
1351;DHT22;669;50.206;9.998;2023-02-19T02:03:59;8.30;97.00
1351;DHT22;669;50.206;9.998;2023-02-19T02:06:29;8.30;97.00
1351;DHT22;669;50.206;9.998;2023-02-19T02:08:58;8.30;96.80
1351;DHT22;669;50.206;9.998;2023-02-19T02:11:47;8.30;96.90
1351;DHT22;669;50.206;9.998;2023-02-19T02:14:16;8.30;97.00
1351;DHT22;669;50.206;9.998;2023-02-19T02:16:53;8.20;97.00
1351;DHT22;669;50.206;9.998;2023-02-19T02:19:53;8.20;97.00
1351;DHT22;669;50.206;9.998;2023-02-19T02:22:27;8.20;97.00
1351;DHT22;669;50.206;9.998;2023-02-19T02:25:21;8.20;97.00
1351;DHT22;669;50.206;9.998;2023-02-19T02:27:58;8.30;96.60
1351;DHT22;669;50.206;9.998;2023-02-19T02:30:32;8.30;96.60
1351;DHT22;669;50.206;9.998;2023-02-19T02:33:08;8.30;96.60
1351;DHT22;669;50.206;9.998;2023-02-19T02:35:43;8.30;96.40
1351;DHT22;669;50.206;9.998;2023-02-19T02:38:13;8.40;96.10
1351;DHT22;669;50.206;9.998;2023-02-19T02:40:44;8.40;96.20
1351;DHT22;669;50.206;9.998;2023-02-19T02:43:12;8.40;96.20
1351;DHT22;669;50.206;9.998;2023-02-19T02:45:41;8.40;96.20
1351;DHT22;669;50.206;9.998;2023-02-19T02:48:17;8.40;96.30
1351;DHT22;669;50.206;9.998;2023-02-19T02:50:51;8.40;96.40
1351;DHT22;669;50.206;9.998;2023-02-19T02:53:24;8.40;96.50
1351;DHT22;669;50.206;9.998;2023-02-19T02:56:11;8.40;96.50
1351;DHT22;669;50.206;9.998;2023-02-19T02:58:41;8.40;96.40
1351;DHT22;669;50.206;9.998;2023-02-19T03:01:15;8.40;96.50
1351;DHT22;669;50.206;9.998;2023-02-19T03:04:07;8.40;96.40
1351;DHT22;669;50.206;9.998;2023-02-19T03:06:37;8.40;96.40
1351;DHT22;669;50.206;9.998;2023-02-19T03:09:09;8.40;96.30
1351;DHT22;669;50.206;9.998;2023-02-19T03:11:40;8.40;96.30
1351;DHT22;669;50.206;9.998;2023-02-19T03:14:32;8.40;96.50
1351;DHT22;669;50.206;9.998;2023-02-19T03:17:25;8.40;96.60
1351;DHT22;669;50.206;9.998;2023-02-19T03:20:14;8.40;96.70
1351;DHT22;669;50.206;9.998;2023-02-19T03:22:45;8.40;96.80
1351;DHT22;669;50.206;9.998;2023-02-19T03:25:16;8.40;96.70
1351;DHT22;669;50.206;9.998;2023-02-19T03:28:06;8.40;96.70
1351;DHT22;669;50.206;9.998;2023-02-19T03:30:37;8.40;96.70
1351;DHT22;669;50.206;9.998;2023-02-19T03:33:09;8.40;96.40
1351;DHT22;669;50.206;9.998;2023-02-19T03:35:41;8.40;96.40
1351;DHT22;669;50.206;9.998;2023-02-19T03:38:12;8.40;96.30
1351;DHT22;669;50.206;9.998;2023-02-19T03:40:51;8.40;96.40
1351;DHT22;669;50.206;9.998;2023-02-19T03:43:23;8.40;96.40
1351;DHT22;669;50.206;9.998;2023-02-19T03:45:57;8.50;96.10
1351;DHT22;669;50.206;9.998;2023-02-19T03:48:33;8.50;96.10
1351;DHT22;669;50.206;9.998;2023-02-19T03:51:10;8.50;96.00
1351;DHT22;669;50.206;9.998;2023-02-19T03:53:48;8.50;95.90
1351;DHT22;669;50.206;9.998;2023-02-19T03:56:24;8.50;96.00
1351;DHT22;669;50.206;9.998;2023-02-19T03:58:59;8.50;95.90
1351;DHT22;669;50.206;9.998;2023-02-19T04:01:32;8.50;95.80
1351;DHT22;669;50.206;9.998;2023-02-19T04:04:08;8.50;95.60
1351;DHT22;669;50.206;9.998;2023-02-19T04:06:39;8.50;95.60
1351;DHT22;669;50.206;9.998;2023-02-19T04:09:10;8.50;95.70
1351;DHT22;669;50.206;9.998;2023-02-19T04:11:40;8.50;95.80
1351;DHT22;669;50.206;9.998;2023-02-19T04:14:11;8.50;96.00
1351;DHT22;669;50.206;9.998;2023-02-19T04:16:44;8.50;96.10
1351;DHT22;669;50.206;9.998;2023-02-19T04:19:18;8.50;96.00
1351;DHT22;669;50.206;9.998;2023-02-19T04:21:48;8.50;96.20
1351;DHT22;669;50.206;9.998;2023-02-19T04:24:21;8.50;96.30
1351;DHT22;669;50.206;9.998;2023-02-19T04:26:51;8.50;96.50
1351;DHT22;669;50.206;9.998;2023-02-19T04:29:19;8.40;96.80
1351;DHT22;669;50.206;9.998;2023-02-19T04:31:47;8.40;97.10
1351;DHT22;669;50.206;9.998;2023-02-19T04:34:16;8.30;97.40
1351;DHT22;669;50.206;9.998;2023-02-19T04:36:44;8.30;97.80
1351;DHT22;669;50.206;9.998;2023-02-19T04:39:12;8.20;98.00
1351;DHT22;669;50.206;9.998;2023-02-19T04:41:40;8.20;98.30
1351;DHT22;669;50.206;9.998;2023-02-19T04:44:08;8.10;98.50
1351;DHT22;669;50.206;9.998;2023-02-19T04:46:35;8.10;98.80
1351;DHT22;669;50.206;9.998;2023-02-19T04:49:03;8.00;98.90
1351;DHT22;669;50.206;9.998;2023-02-19T04:51:33;8.00;98.90
1351;DHT22;669;50.206;9.998;2023-02-19T04:54:01;8.00;99.00
1351;DHT22;669;50.206;9.998;2023-02-19T04:56:29;8.00;99.10
1351;DHT22;669;50.206;9.998;2023-02-19T04:58:57;7.90;99.10
1351;DHT22;669;50.206;9.998;2023-02-19T05:01:25;7.90;99.10
1351;DHT22;669;50.206;9.998;2023-02-19T05:03:53;7.90;99.10
1351;DHT22;669;50.206;9.998;2023-02-19T05:06:21;7.80;99.10
1351;DHT22;669;50.206;9.998;2023-02-19T05:08:50;7.90;99.20
1351;DHT22;669;50.206;9.998;2023-02-19T05:11:18;7.90;99.20
1351;DHT22;669;50.206;9.998;2023-02-19T05:13:45;7.90;99.20
1351;DHT22;669;50.206;9.998;2023-02-19T05:16:14;7.80;99.10
1351;DHT22;669;50.206;9.998;2023-02-19T05:18:44;7.90;99.20
1351;DHT22;669;50.206;9.998;2023-02-19T05:21:12;7.80;99.10
1351;DHT22;669;50.206;9.998;2023-02-19T05:23:41;7.80;99.10
1351;DHT22;669;50.206;9.998;2023-02-19T05:26:13;7.90;99.10
1351;DHT22;669;50.206;9.998;2023-02-19T05:28:43;7.90;98.80
1351;DHT22;669;50.206;9.998;2023-02-19T05:31:11;7.90;98.80
1351;DHT22;669;50.206;9.998;2023-02-19T05:33:40;7.90;98.80
1351;DHT22;669;50.206;9.998;2023-02-19T05:36:11;8.00;98.80
1351;DHT22;669;50.206;9.998;2023-02-19T05:38:40;8.00;98.60
1351;DHT22;669;50.206;9.998;2023-02-19T05:41:12;8.00;98.40
1351;DHT22;669;50.206;9.998;2023-02-19T05:43:42;8.00;98.30
1351;DHT22;669;50.206;9.998;2023-02-19T05:46:12;8.00;98.30
1351;DHT22;669;50.206;9.998;2023-02-19T05:48:40;8.00;98.30
1351;DHT22;669;50.206;9.998;2023-02-19T05:51:10;8.00;98.30
1351;DHT22;669;50.206;9.998;2023-02-19T05:53:39;8.00;98.20
1351;DHT22;669;50.206;9.998;2023-02-19T05:59:19;8.00;98.10
1351;DHT22;669;50.206;9.998;2023-02-19T06:01:49;8.00;98.10
1351;DHT22;669;50.206;9.998;2023-02-19T06:04:17;8.00;98.10
1351;DHT22;669;50.206;9.998;2023-02-19T06:06:46;8.00;98.20
1351;DHT22;669;50.206;9.998;2023-02-19T06:09:14;8.00;98.40
1351;DHT22;669;50.206;9.998;2023-02-19T06:11:44;8.00;98.50
1351;DHT22;669;50.206;9.998;2023-02-19T06:14:12;8.00;98.60
1351;DHT22;669;50.206;9.998;2023-02-19T06:16:40;8.00;98.90
1351;DHT22;669;50.206;9.998;2023-02-19T06:19:08;7.90;98.80
1351;DHT22;669;50.206;9.998;2023-02-19T06:21:36;7.90;98.80
1351;DHT22;669;50.206;9.998;2023-02-19T06:24:05;7.90;98.80
1351;DHT22;669;50.206;9.998;2023-02-19T06:26:34;7.90;98.80
1351;DHT22;669;50.206;9.998;2023-02-19T06:29:03;7.90;98.80
1351;DHT22;669;50.206;9.998;2023-02-19T06:31:31;7.90;98.80
1351;DHT22;669;50.206;9.998;2023-02-19T06:34:02;7.80;98.80
1351;DHT22;669;50.206;9.998;2023-02-19T06:36:30;7.80;98.80
1351;DHT22;669;50.206;9.998;2023-02-19T06:38:59;7.70;98.80
1351;DHT22;669;50.206;9.998;2023-02-19T06:41:26;7.70;98.90
1351;DHT22;669;50.206;9.998;2023-02-19T06:43:56;7.70;99.00
1351;DHT22;669;50.206;9.998;2023-02-19T06:46:25;7.70;99.10
1351;DHT22;669;50.206;9.998;2023-02-19T06:48:53;7.70;99.10
1351;DHT22;669;50.206;9.998;2023-02-19T06:51:21;7.80;99.20
1351;DHT22;669;50.206;9.998;2023-02-19T06:53:52;7.80;99.20
1351;DHT22;669;50.206;9.998;2023-02-19T06:56:22;7.80;99.10
1351;DHT22;669;50.206;9.998;2023-02-19T06:58:52;7.80;99.10
1351;DHT22;669;50.206;9.998;2023-02-19T07:01:20;7.80;99.00
1351;DHT22;669;50.206;9.998;2023-02-19T07:03:49;7.80;99.00
1351;DHT22;669;50.206;9.998;2023-02-19T07:06:18;7.80;99.00
1351;DHT22;669;50.206;9.998;2023-02-19T07:08:46;7.80;99.00
1351;DHT22;669;50.206;9.998;2023-02-19T07:11:14;7.80;98.90
1351;DHT22;669;50.206;9.998;2023-02-19T07:13:42;7.80;98.80
1351;DHT22;669;50.206;9.998;2023-02-19T07:16:12;7.90;98.80
1351;DHT22;669;50.206;9.998;2023-02-19T07:18:40;7.90;98.80
1351;DHT22;669;50.206;9.998;2023-02-19T07:21:11;8.00;98.40
1351;DHT22;669;50.206;9.998;2023-02-19T07:23:40;8.00;98.20
1351;DHT22;669;50.206;9.998;2023-02-19T07:26:09;8.00;98.10
1351;DHT22;669;50.206;9.998;2023-02-19T07:28:39;8.00;98.00
1351;DHT22;669;50.206;9.998;2023-02-19T07:31:07;8.00;97.80
1351;DHT22;669;50.206;9.998;2023-02-19T07:33:35;8.10;97.70
1351;DHT22;669;50.206;9.998;2023-02-19T07:36:06;8.10;97.60
1351;DHT22;669;50.206;9.998;2023-02-19T07:38:35;8.10;97.30
1351;DHT22;669;50.206;9.998;2023-02-19T07:41:04;8.10;96.90
1351;DHT22;669;50.206;9.998;2023-02-19T07:43:34;8.10;96.70
1351;DHT22;669;50.206;9.998;2023-02-19T07:46:02;8.10;96.70
1351;DHT22;669;50.206;9.998;2023-02-19T07:48:31;8.20;96.80
1351;DHT22;669;50.206;9.998;2023-02-19T07:51:00;8.20;96.50
1351;DHT22;669;50.206;9.998;2023-02-19T07:53:29;8.20;96.70
1351;DHT22;669;50.206;9.998;2023-02-19T07:56:00;8.20;97.00
1351;DHT22;669;50.206;9.998;2023-02-19T07:58:28;8.20;97.40
1351;DHT22;669;50.206;9.998;2023-02-19T08:00:56;8.10;97.50
1351;DHT22;669;50.206;9.998;2023-02-19T08:03:24;8.10;97.60
1351;DHT22;669;50.206;9.998;2023-02-19T08:05:51;8.10;97.70
1351;DHT22;669;50.206;9.998;2023-02-19T08:08:20;8.10;97.90
1351;DHT22;669;50.206;9.998;2023-02-19T08:10:48;8.10;97.90
1351;DHT22;669;50.206;9.998;2023-02-19T08:13:50;8.00;97.80
1351;DHT22;669;50.206;9.998;2023-02-19T08:16:19;8.10;97.90
1351;DHT22;669;50.206;9.998;2023-02-19T08:19:08;8.10;97.90
1351;DHT22;669;50.206;9.998;2023-02-19T08:21:36;8.10;98.00
1351;DHT22;669;50.206;9.998;2023-02-19T08:24:04;8.00;98.00
1351;DHT22;669;50.206;9.998;2023-02-19T08:26:32;8.00;98.20
1351;DHT22;669;50.206;9.998;2023-02-19T08:29:02;8.00;98.20
1351;DHT22;669;50.206;9.998;2023-02-19T08:31:30;8.00;98.40
1351;DHT22;669;50.206;9.998;2023-02-19T08:33:59;8.00;98.40
1351;DHT22;669;50.206;9.998;2023-02-19T08:36:27;8.00;98.60
1351;DHT22;669;50.206;9.998;2023-02-19T08:38:55;8.00;98.40
1351;DHT22;669;50.206;9.998;2023-02-19T08:41:23;8.00;98.30
1351;DHT22;669;50.206;9.998;2023-02-19T08:43:51;8.00;98.20
1351;DHT22;669;50.206;9.998;2023-02-19T08:46:20;8.00;98.10
1351;DHT22;669;50.206;9.998;2023-02-19T08:48:49;8.00;98.10
1351;DHT22;669;50.206;9.998;2023-02-19T08:51:17;8.00;98.10
1351;DHT22;669;50.206;9.998;2023-02-19T08:53:45;8.00;98.10
1351;DHT22;669;50.206;9.998;2023-02-19T08:56:15;8.00;98.10
1351;DHT22;669;50.206;9.998;2023-02-19T08:58:44;8.10;98.00
1351;DHT22;669;50.206;9.998;2023-02-19T09:01:14;8.10;98.00
1351;DHT22;669;50.206;9.998;2023-02-19T09:03:45;8.10;98.10
1351;DHT22;669;50.206;9.998;2023-02-19T09:06:14;8.10;98.00
1351;DHT22;669;50.206;9.998;2023-02-19T09:08:43;8.10;98.10
1351;DHT22;669;50.206;9.998;2023-02-19T09:11:11;8.10;98.20
1351;DHT22;669;50.206;9.998;2023-02-19T09:13:40;8.10;98.20
1351;DHT22;669;50.206;9.998;2023-02-19T09:16:08;8.10;98.10
1351;DHT22;669;50.206;9.998;2023-02-19T09:18:36;8.10;98.20
1351;DHT22;669;50.206;9.998;2023-02-19T09:21:05;8.00;98.30
1351;DHT22;669;50.206;9.998;2023-02-19T09:23:34;8.00;98.30
1351;DHT22;669;50.206;9.998;2023-02-19T09:26:03;8.00;98.30
1351;DHT22;669;50.206;9.998;2023-02-19T09:28:34;8.00;98.40
1351;DHT22;669;50.206;9.998;2023-02-19T09:31:05;8.00;98.50
1351;DHT22;669;50.206;9.998;2023-02-19T09:33:34;8.00;98.60
1351;DHT22;669;50.206;9.998;2023-02-19T09:36:02;8.00;98.70
1351;DHT22;669;50.206;9.998;2023-02-19T09:38:32;8.00;98.70
1351;DHT22;669;50.206;9.998;2023-02-19T09:41:06;8.00;98.80
1351;DHT22;669;50.206;9.998;2023-02-19T09:43:35;8.00;98.80
1351;DHT22;669;50.206;9.998;2023-02-19T09:46:08;8.00;98.70
1351;DHT22;669;50.206;9.998;2023-02-19T09:48:39;8.10;98.80
1351;DHT22;669;50.206;9.998;2023-02-19T09:51:08;8.10;98.60
1351;DHT22;669;50.206;9.998;2023-02-19T09:53:41;8.10;98.50
1351;DHT22;669;50.206;9.998;2023-02-19T09:56:10;8.20;98.10
1351;DHT22;669;50.206;9.998;2023-02-19T09:58:42;8.30;97.70
1351;DHT22;669;50.206;9.998;2023-02-19T10:01:12;8.30;97.50
1351;DHT22;669;50.206;9.998;2023-02-19T10:03:43;8.30;97.10
1351;DHT22;669;50.206;9.998;2023-02-19T10:06:17;8.40;97.10
1351;DHT22;669;50.206;9.998;2023-02-19T10:08:48;8.50;96.50
1351;DHT22;669;50.206;9.998;2023-02-19T10:11:17;8.50;96.40
1351;DHT22;669;50.206;9.998;2023-02-19T10:13:48;8.60;96.20
1351;DHT22;669;50.206;9.998;2023-02-19T10:16:21;8.60;95.60
1351;DHT22;669;50.206;9.998;2023-02-19T10:18:50;8.60;96.00
1351;DHT22;669;50.206;9.998;2023-02-19T10:21:21;8.60;95.90
1351;DHT22;669;50.206;9.998;2023-02-19T10:23:53;8.70;96.30
1351;DHT22;669;50.206;9.998;2023-02-19T10:26:22;8.70;96.00
1351;DHT22;669;50.206;9.998;2023-02-19T10:28:51;8.70;95.90
1351;DHT22;669;50.206;9.998;2023-02-19T10:31:21;8.70;95.60
1351;DHT22;669;50.206;9.998;2023-02-19T10:33:51;8.70;95.40
1351;DHT22;669;50.206;9.998;2023-02-19T10:36:24;8.70;95.80
1351;DHT22;669;50.206;9.998;2023-02-19T10:38:57;8.80;95.00
1351;DHT22;669;50.206;9.998;2023-02-19T10:41:26;8.90;94.50
1351;DHT22;669;50.206;9.998;2023-02-19T10:43:58;8.90;94.30
1351;DHT22;669;50.206;9.998;2023-02-19T10:46:30;8.90;93.60
1351;DHT22;669;50.206;9.998;2023-02-19T10:49:01;8.90;93.60
1351;DHT22;669;50.206;9.998;2023-02-19T10:51:33;9.00;93.00
1351;DHT22;669;50.206;9.998;2023-02-19T10:54:05;9.10;93.90
1351;DHT22;669;50.206;9.998;2023-02-19T10:56:34;9.00;94.20
1351;DHT22;669;50.206;9.998;2023-02-19T10:59:20;9.00;95.00
1351;DHT22;669;50.206;9.998;2023-02-19T11:01:53;8.90;95.20
1351;DHT22;669;50.206;9.998;2023-02-19T11:04:21;8.90;94.80
1351;DHT22;669;50.206;9.998;2023-02-19T11:06:50;8.80;95.20
1351;DHT22;669;50.206;9.998;2023-02-19T11:09:26;8.80;95.30
1351;DHT22;669;50.206;9.998;2023-02-19T11:11:55;8.70;96.00
1351;DHT22;669;50.206;9.998;2023-02-19T11:14:24;8.80;96.20
1351;DHT22;669;50.206;9.998;2023-02-19T11:16:55;8.80;96.20
1351;DHT22;669;50.206;9.998;2023-02-19T11:19:30;8.80;96.30
1351;DHT22;669;50.206;9.998;2023-02-19T11:21:59;8.80;95.40
1351;DHT22;669;50.206;9.998;2023-02-19T11:24:31;8.70;95.90
1351;DHT22;669;50.206;9.998;2023-02-19T11:27:02;8.70;96.40
1351;DHT22;669;50.206;9.998;2023-02-19T11:29:31;8.70;96.70
1351;DHT22;669;50.206;9.998;2023-02-19T11:32:23;8.70;96.80
1351;DHT22;669;50.206;9.998;2023-02-19T11:35:14;8.80;96.60
1351;DHT22;669;50.206;9.998;2023-02-19T11:37:56;8.80;96.50
1351;DHT22;669;50.206;9.998;2023-02-19T11:40:37;8.70;96.40
1351;DHT22;669;50.206;9.998;2023-02-19T11:43:15;8.70;96.40
1351;DHT22;669;50.206;9.998;2023-02-19T11:45:51;8.70;95.90
1351;DHT22;669;50.206;9.998;2023-02-19T11:48:32;8.70;95.90
1351;DHT22;669;50.206;9.998;2023-02-19T11:51:14;8.70;96.10
1351;DHT22;669;50.206;9.998;2023-02-19T11:53:47;8.70;96.40
1351;DHT22;669;50.206;9.998;2023-02-19T11:56:22;8.70;96.00
1351;DHT22;669;50.206;9.998;2023-02-19T11:58:58;8.70;95.80
1351;DHT22;669;50.206;9.998;2023-02-19T12:01:55;8.80;95.70
1351;DHT22;669;50.206;9.998;2023-02-19T12:08:06;9.00;94.70
1351;DHT22;669;50.206;9.998;2023-02-19T12:10:48;9.10;94.00
1351;DHT22;669;50.206;9.998;2023-02-19T12:13:23;9.30;93.40
1351;DHT22;669;50.206;9.998;2023-02-19T12:16:02;9.30;92.50
1351;DHT22;669;50.206;9.998;2023-02-19T12:18:58;9.30;92.30
1351;DHT22;669;50.206;9.998;2023-02-19T12:21:43;9.30;93.30
1351;DHT22;669;50.206;9.998;2023-02-19T12:24:34;9.50;93.10
1351;DHT22;669;50.206;9.998;2023-02-19T12:27:19;9.70;92.50
1351;DHT22;669;50.206;9.998;2023-02-19T12:30:04;9.70;92.00
1351;DHT22;669;50.206;9.998;2023-02-19T12:32:53;9.70;92.30
1351;DHT22;669;50.206;9.998;2023-02-19T12:35:34;9.70;91.50
1351;DHT22;669;50.206;9.998;2023-02-19T12:38:15;9.80;91.30
1351;DHT22;669;50.206;9.998;2023-02-19T12:40:58;9.90;91.00
1351;DHT22;669;50.206;9.998;2023-02-19T12:43:30;9.80;90.80
1351;DHT22;669;50.206;9.998;2023-02-19T12:46:03;9.80;89.10
1351;DHT22;669;50.206;9.998;2023-02-19T12:48:34;9.70;90.30
1351;DHT22;669;50.206;9.998;2023-02-19T12:51:06;9.60;90.70
1351;DHT22;669;50.206;9.998;2023-02-19T12:53:42;9.70;90.20
1351;DHT22;669;50.206;9.998;2023-02-19T12:56:16;9.70;90.20
1351;DHT22;669;50.206;9.998;2023-02-19T12:58:47;9.70;90.10
1351;DHT22;669;50.206;9.998;2023-02-19T13:01:22;9.70;90.10
1351;DHT22;669;50.206;9.998;2023-02-19T13:04:13;9.70;89.70
1351;DHT22;669;50.206;9.998;2023-02-19T13:06:45;9.60;89.80
1351;DHT22;669;50.206;9.998;2023-02-19T13:09:21;9.60;89.50
1351;DHT22;669;50.206;9.998;2023-02-19T13:11:54;9.60;89.00
1351;DHT22;669;50.206;9.998;2023-02-19T13:14:26;9.60;88.30
1351;DHT22;669;50.206;9.998;2023-02-19T13:16:59;9.60;87.60
1351;DHT22;669;50.206;9.998;2023-02-19T13:19:28;9.60;88.50
1351;DHT22;669;50.206;9.998;2023-02-19T13:22:03;9.50;87.60
1351;DHT22;669;50.206;9.998;2023-02-19T13:24:50;9.50;87.60
1351;DHT22;669;50.206;9.998;2023-02-19T13:27:33;9.50;88.70
1351;DHT22;669;50.206;9.998;2023-02-19T13:30:20;9.70;87.60
1351;DHT22;669;50.206;9.998;2023-02-19T13:32:58;9.80;87.10
1351;DHT22;669;50.206;9.998;2023-02-19T13:35:58;9.80;85.90
1351;DHT22;669;50.206;9.998;2023-02-19T13:38:32;9.80;86.60
1351;DHT22;669;50.206;9.998;2023-02-19T13:41:04;9.80;86.10
1351;DHT22;669;50.206;9.998;2023-02-19T13:43:35;9.80;84.30
1351;DHT22;669;50.206;9.998;2023-02-19T13:46:06;9.80;83.60
1351;DHT22;669;50.206;9.998;2023-02-19T13:48:38;9.80;83.80
1351;DHT22;669;50.206;9.998;2023-02-19T13:51:38;9.90;84.10
1351;DHT22;669;50.206;9.998;2023-02-19T13:54:20;9.90;83.30
1351;DHT22;669;50.206;9.998;2023-02-19T13:56:48;9.90;83.40
1351;DHT22;669;50.206;9.998;2023-02-19T13:59:32;9.90;83.10
1351;DHT22;669;50.206;9.998;2023-02-19T14:04:59;9.90;83.60
1351;DHT22;669;50.206;9.998;2023-02-19T14:10:56;9.80;82.60
1351;DHT22;669;50.206;9.998;2023-02-19T14:16:54;9.80;84.30
1351;DHT22;669;50.206;9.998;2023-02-19T14:19:45;9.80;84.30
1351;DHT22;669;50.206;9.998;2023-02-19T14:25:32;9.70;84.20
1351;DHT22;669;50.206;9.998;2023-02-19T14:28:03;9.80;84.30
1351;DHT22;669;50.206;9.998;2023-02-19T14:30:33;9.70;84.60
1351;DHT22;669;50.206;9.998;2023-02-19T14:33:02;9.70;84.20
1351;DHT22;669;50.206;9.998;2023-02-19T14:35:39;9.70;84.20
1351;DHT22;669;50.206;9.998;2023-02-19T14:38:14;9.60;84.10
1351;DHT22;669;50.206;9.998;2023-02-19T14:40:45;9.60;84.90
1351;DHT22;669;50.206;9.998;2023-02-19T14:43:16;9.60;83.70
1351;DHT22;669;50.206;9.998;2023-02-19T14:45:46;9.50;84.10
1351;DHT22;669;50.206;9.998;2023-02-19T14:48:21;9.50;84.10
1351;DHT22;669;50.206;9.998;2023-02-19T14:50:54;9.50;84.70
1351;DHT22;669;50.206;9.998;2023-02-19T14:53:24;9.50;84.90
1351;DHT22;669;50.206;9.998;2023-02-19T14:55:55;9.50;85.40
1351;DHT22;669;50.206;9.998;2023-02-19T14:58:27;9.50;87.50
1351;DHT22;669;50.206;9.998;2023-02-19T15:00:55;9.40;89.20
1351;DHT22;669;50.206;9.998;2023-02-19T15:03:29;9.30;90.60
1351;DHT22;669;50.206;9.998;2023-02-19T15:06:01;9.20;91.30
1351;DHT22;669;50.206;9.998;2023-02-19T15:08:33;9.10;92.10
1351;DHT22;669;50.206;9.998;2023-02-19T15:11:08;9.00;92.10
1351;DHT22;669;50.206;9.998;2023-02-19T15:13:39;9.00;92.20
1351;DHT22;669;50.206;9.998;2023-02-19T15:16:16;9.00;92.30
1351;DHT22;669;50.206;9.998;2023-02-19T15:18:45;9.00;92.40
1351;DHT22;669;50.206;9.998;2023-02-19T15:21:21;9.00;92.30
1351;DHT22;669;50.206;9.998;2023-02-19T15:23:52;9.00;92.60
1351;DHT22;669;50.206;9.998;2023-02-19T15:26:23;9.00;92.80
1351;DHT22;669;50.206;9.998;2023-02-19T15:28:58;8.90;92.90
1351;DHT22;669;50.206;9.998;2023-02-19T15:31:27;8.90;93.00
1351;DHT22;669;50.206;9.998;2023-02-19T15:33:56;8.90;93.10
1351;DHT22;669;50.206;9.998;2023-02-19T15:36:26;8.90;93.30
1351;DHT22;669;50.206;9.998;2023-02-19T15:38:56;8.90;93.00
1351;DHT22;669;50.206;9.998;2023-02-19T15:41:28;8.90;93.00
1351;DHT22;669;50.206;9.998;2023-02-19T15:44:07;8.90;93.00
1351;DHT22;669;50.206;9.998;2023-02-19T15:46:37;8.90;93.00
1351;DHT22;669;50.206;9.998;2023-02-19T15:49:11;8.90;93.00
1351;DHT22;669;50.206;9.998;2023-02-19T15:51:43;8.90;92.80
1351;DHT22;669;50.206;9.998;2023-02-19T15:54:18;8.90;92.10
1351;DHT22;669;50.206;9.998;2023-02-19T15:56:56;8.90;92.10
1351;DHT22;669;50.206;9.998;2023-02-19T15:59:28;8.90;92.00
1351;DHT22;669;50.206;9.998;2023-02-19T16:01:59;8.90;92.00
1351;DHT22;669;50.206;9.998;2023-02-19T16:04:29;8.90;92.00
1351;DHT22;669;50.206;9.998;2023-02-19T16:06:58;8.80;91.90
1351;DHT22;669;50.206;9.998;2023-02-19T16:09:29;8.80;91.90
1351;DHT22;669;50.206;9.998;2023-02-19T16:11:59;8.80;92.00
1351;DHT22;669;50.206;9.998;2023-02-19T16:14:29;8.80;91.90
1351;DHT22;669;50.206;9.998;2023-02-19T16:17:03;8.80;91.90
1351;DHT22;669;50.206;9.998;2023-02-19T16:19:43;8.70;92.00
1351;DHT22;669;50.206;9.998;2023-02-19T16:22:13;8.70;91.90
1351;DHT22;669;50.206;9.998;2023-02-19T16:24:45;8.70;92.00
1351;DHT22;669;50.206;9.998;2023-02-19T16:27:27;8.70;92.10
1351;DHT22;669;50.206;9.998;2023-02-19T16:29:56;8.70;92.20
1351;DHT22;669;50.206;9.998;2023-02-19T16:32:24;8.70;92.30
1351;DHT22;669;50.206;9.998;2023-02-19T16:34:52;8.70;92.20
1351;DHT22;669;50.206;9.998;2023-02-19T16:37:31;8.70;92.30
1351;DHT22;669;50.206;9.998;2023-02-19T16:40:51;8.60;92.40
1351;DHT22;669;50.206;9.998;2023-02-19T16:43:36;8.60;92.60
1351;DHT22;669;50.206;9.998;2023-02-19T16:46:07;8.60;92.30
1351;DHT22;669;50.206;9.998;2023-02-19T16:48:36;8.60;92.50
1351;DHT22;669;50.206;9.998;2023-02-19T16:51:05;8.60;92.60
1351;DHT22;669;50.206;9.998;2023-02-19T16:53:33;8.60;93.00
1351;DHT22;669;50.206;9.998;2023-02-19T16:56:01;8.50;93.30
1351;DHT22;669;50.206;9.998;2023-02-19T16:58:30;8.50;93.40
1351;DHT22;669;50.206;9.998;2023-02-19T17:00:58;8.40;93.60
1351;DHT22;669;50.206;9.998;2023-02-19T17:03:27;8.40;93.90
1351;DHT22;669;50.206;9.998;2023-02-19T17:05:55;8.40;94.00
1351;DHT22;669;50.206;9.998;2023-02-19T17:08:32;8.40;93.80
1351;DHT22;669;50.206;9.998;2023-02-19T17:11:02;8.30;93.60
1351;DHT22;669;50.206;9.998;2023-02-19T17:13:32;8.30;93.60
1351;DHT22;669;50.206;9.998;2023-02-19T17:16:00;8.30;93.50
1351;DHT22;669;50.206;9.998;2023-02-19T17:18:28;8.20;93.70
1351;DHT22;669;50.206;9.998;2023-02-19T17:21:00;8.20;93.70
1351;DHT22;669;50.206;9.998;2023-02-19T17:23:28;8.10;93.80
1351;DHT22;669;50.206;9.998;2023-02-19T17:25:56;8.10;93.80
1351;DHT22;669;50.206;9.998;2023-02-19T17:28:24;8.00;93.90